Time;durP1;ratioP1;P1;durP2;ratioP2;P2;SDS_P1;SDS_P2;PMS_P1;PMS_P2;Temp;Humidity;BMP_temperature;BMP_pressure;BME280_temperature;BME280_humidity;BME280_pressure;Samples;Min_cycle;Max_cycle;Signal;HPM_P1;HPM_P2
2022/09/28 00:01:25;;;;;;;4.43;2.40;;;;;;;7.92;100.00;98219.84;5018857;28;20244;-73
2022/09/28 00:03:53;;;;;;;3.10;2.77;;;;;;;7.93;100.00;98213.78;5024537;28;20302;-74
2022/09/28 00:06:22;;;;;;;3.77;2.40;;;;;;;8.00;100.00;98221.81;5027431;28;20190;-72
2022/09/28 00:08:48;;;;;;;3.57;2.23;;;;;;;8.00;100.00;98206.47;5017295;28;20241;-69
2022/09/28 00:11:14;;;;;;;5.90;2.30;;;;;;;7.94;100.00;98202.63;5010992;28;20261;-73
2022/09/28 00:13:41;;;;;;;4.43;2.77;;;;;;;7.96;100.00;98205.06;5013848;28;20198;-76
2022/09/28 00:16:10;;;;;;;3.67;2.73;;;;;;;7.94;100.00;98194.13;5011029;28;20648;-77
2022/09/28 00:18:35;;;;;;;6.63;2.83;;;;;;;8.02;100.00;98195.19;5017079;28;20303;-77
2022/09/28 00:21:02;;;;;;;5.50;3.43;;;;;;;8.13;100.00;98191.81;5003411;28;20222;-77
2022/09/28 00:23:27;;;;;;;4.00;2.67;;;;;;;7.98;100.00;98196.34;5009888;28;20274;-77
2022/09/28 00:25:53;;;;;;;5.00;2.53;;;;;;;8.03;100.00;98185.75;5010602;28;20266;-76
2022/09/28 00:28:18;;;;;;;5.10;2.60;;;;;;;7.89;100.00;98181.69;5010004;28;20218;-77
2022/09/28 00:30:43;;;;;;;4.97;2.87;;;;;;;7.84;100.00;98179.44;5008417;28;20688;-76
2022/09/28 00:33:08;;;;;;;3.90;2.63;;;;;;;7.94;100.00;98181.31;5009427;28;20217;-76
2022/09/28 00:35:34;;;;;;;3.83;2.63;;;;;;;7.78;100.00;98171.41;5007384;28;20187;-77
2022/09/28 00:38:01;;;;;;;5.03;2.87;;;;;;;7.66;100.00;98165.47;5016904;28;20578;-78
2022/09/28 00:40:26;;;;;;;2.97;2.50;;;;;;;7.66;100.00;98160.34;5010017;28;20233;-77
2022/09/28 00:42:51;;;;;;;4.27;2.63;;;;;;;7.61;100.00;98154.75;5012971;28;20683;-77
2022/09/28 00:45:17;;;;;;;5.10;3.10;;;;;;;7.61;100.00;98147.06;5020266;28;20186;-76
2022/09/28 00:47:50;;;;;;;4.57;2.53;;;;;;;7.62;100.00;98139.28;5022638;28;20678;-77
2022/09/28 00:50:21;;;;;;;4.60;2.90;;;;;;;7.73;100.00;98138.50;5011594;28;20668;-75
2022/09/28 00:52:58;;;;;;;7.70;2.80;;;;;;;7.69;100.00;98131.94;5027932;28;20195;-76
2022/09/28 00:55:47;;;;;;;4.13;2.57;;;;;;;7.88;100.00;98132.22;5017503;28;20280;-76
2022/09/28 00:58:18;;;;;;;8.27;3.40;;;;;;;8.00;100.00;98119.41;5015075;28;20189;-76
2022/09/28 01:00:43;;;;;;;2.80;2.60;;;;;;;7.98;100.00;98121.28;5014177;28;20237;-75
2022/09/28 01:03:09;;;;;;;6.00;2.77;;;;;;;8.04;100.00;98118.28;5013353;28;20328;-75
2022/09/28 01:05:35;;;;;;;4.60;2.80;;;;;;;7.98;100.00;98122.09;5016719;28;20198;-75
2022/09/28 01:08:02;;;;;;;5.03;2.47;;;;;;;8.04;100.00;98108.81;5013081;28;20658;-75
2022/09/28 01:10:29;;;;;;;3.40;2.70;;;;;;;8.08;100.00;98102.53;5007201;28;20233;-75
2022/09/28 01:12:55;;;;;;;4.17;2.97;;;;;;;7.93;100.00;98103.72;5013190;28;20175;-75
2022/09/28 01:15:21;;;;;;;3.40;2.57;;;;;;;7.97;100.00;98094.84;5005138;28;20189;-75
2022/09/28 01:18:15;;;;;;;3.73;2.83;;;;;;;8.01;100.00;98085.19;5023202;28;20312;-75
2022/09/28 01:21:04;;;;;;;7.20;3.00;;;;;;;8.09;100.00;98088.00;5013918;28;20233;-77
2022/09/28 01:23:53;;;;;;;3.07;2.70;;;;;;;8.10;100.00;98074.28;5012573;28;20178;-76
2022/09/28 01:26:19;;;;;;;8.67;3.07;;;;;;;8.15;100.00;98087.53;5012474;28;20654;-76
2022/09/28 01:28:49;;;;;;;4.87;2.97;;;;;;;8.25;100.00;98090.19;5023110;28;20226;-76
2022/09/28 01:31:16;;;;;;;6.80;3.13;;;;;;;8.34;100.00;98088.69;5023424;28;20711;-74
2022/09/28 01:33:50;;;;;;;5.30;2.60;;;;;;;8.36;100.00;98082.50;5018759;28;20213;-75
2022/09/28 01:36:28;;;;;;;5.10;2.80;;;;;;;8.46;100.00;98080.06;5015199;28;20552;-76
2022/09/28 01:39:12;;;;;;;4.13;3.07;;;;;;;8.42;100.00;98080.38;5019787;28;20245;-75
2022/09/28 01:41:40;;;;;;;7.63;3.00;;;;;;;8.46;100.00;98079.19;5015695;28;20249;-75
2022/09/28 01:44:12;;;;;;;4.00;2.60;;;;;;;8.47;100.00;98068.88;5018884;28;20233;-75
2022/09/28 01:46:44;;;;;;;3.77;2.90;;;;;;;8.50;100.00;98076.31;5018754;28;20221;-75
2022/09/28 01:49:15;;;;;;;5.37;3.57;;;;;;;8.59;100.00;98076.53;5020513;28;20175;-75
2022/09/28 01:51:48;;;;;;;6.70;3.30;;;;;;;8.58;100.00;98085.16;5029769;28;20268;-75
2022/09/28 01:54:19;;;;;;;3.83;3.07;;;;;;;8.60;100.00;98083.31;5020562;28;20182;-75
2022/09/28 01:56:51;;;;;;;3.77;3.40;;;;;;;8.65;100.00;98076.06;5020625;28;20186;-75
2022/09/28 01:59:29;;;;;;;4.63;3.33;;;;;;;8.68;100.00;98074.06;5023483;28;20206;-75
2022/09/28 02:02:04;;;;;;;5.50;3.40;;;;;;;8.53;100.00;98070.13;5019710;28;20240;-75
2022/09/28 02:04:35;;;;;;;4.43;3.30;;;;;;;8.47;100.00;98057.81;5020303;28;20174;-74
2022/09/28 02:07:15;;;;;;;5.67;3.00;;;;;;;8.47;100.00;98053.50;5025912;28;20328;-74
2022/09/28 02:09:58;;;;;;;4.77;2.83;;;;;;;8.48;100.00;98050.00;5009821;28;20265;-74
2022/09/28 02:12:50;;;;;;;6.20;3.33;;;;;;;8.44;100.00;98065.72;5016835;28;20313;-74
2022/09/28 02:15:21;;;;;;;5.03;3.70;;;;;;;8.29;100.00;98073.66;5015089;28;20189;-74
2022/09/28 02:17:48;;;;;;;3.47;2.90;;;;;;;8.36;100.00;98071.41;5025532;28;20226;-74
2022/09/28 02:20:14;;;;;;;4.20;3.80;;;;;;;8.20;100.00;98072.63;5005126;28;20239;-74
2022/09/28 02:22:48;;;;;;;5.90;4.43;;;;;;;8.28;100.00;98073.78;5018465;28;20225;-74
2022/09/28 02:25:25;;;;;;;6.37;5.17;;;;;;;8.18;100.00;98064.22;5029717;28;20629;-74
2022/09/28 02:27:59;;;;;;;5.70;4.63;;;;;;;8.09;100.00;98064.97;5028651;28;20198;-74
2022/09/28 02:30:26;;;;;;;8.63;4.83;;;;;;;8.03;100.00;98057.75;5020254;28;20233;-76
2022/09/28 02:32:55;;;;;;;6.23;4.27;;;;;;;8.12;100.00;98061.34;5010708;28;20206;-78
2022/09/28 02:35:21;;;;;;;4.03;2.47;;;;;;;7.98;100.00;98054.72;5015444;28;20697;-78
2022/09/28 02:37:48;;;;;;;4.77;2.50;;;;;;;8.07;100.00;98059.13;5014533;28;20178;-78
2022/09/28 02:40:20;;;;;;;2.63;2.07;;;;;;;8.08;100.00;98053.88;5003847;28;20198;-76
2022/09/28 02:42:55;;;;;;;2.60;2.40;;;;;;;8.12;100.00;98054.47;5025752;28;20186;-77
2022/09/28 02:45:55;;;;;;;4.13;2.90;;;;;;;8.14;100.00;98044.91;5014704;28;20179;-78
2022/09/28 02:48:51;;;;;;;4.63;4.10;;;;;;;8.08;100.00;98047.97;4973699;28;20220;-78
2022/09/28 02:51:16;;;;;;;4.53;3.73;;;;;;;8.13;100.00;98045.84;5024033;28;20221;-76
2022/09/28 02:53:58;;;;;;;4.17;2.93;;;;;;;8.10;100.00;98048.66;5012623;28;20193;-75
2022/09/28 02:56:43;;;;;;;4.33;3.77;;;;;;;8.17;100.00;98049.00;5021667;28;20202;-76
2022/09/28 02:59:20;;;;;;;3.33;2.67;;;;;;;8.17;100.00;98046.44;5021701;28;20182;-77
2022/09/28 03:01:53;;;;;;;3.10;2.70;;;;;;;8.24;100.00;98047.59;4981383;28;20221;-77
2022/09/28 03:04:36;;;;;;;2.60;2.40;;;;;;;8.27;100.00;98046.53;5011774;28;20264;-78
2022/09/28 03:07:15;;;;;;;12.07;2.20;;;;;;;8.16;100.00;98039.69;5014124;28;20287;-77
2022/09/28 03:09:57;;;;;;;1.50;1.40;;;;;;;8.09;100.00;98034.22;5009785;28;20270;-77
2022/09/28 03:12:24;;;;;;;1.37;1.10;;;;;;;8.19;100.00;98044.56;5027841;28;20244;-77
2022/09/28 03:15:05;;;;;;;1.40;1.30;;;;;;;8.23;100.00;98044.19;5015833;28;20189;-76
2022/09/28 03:17:31;;;;;;;1.23;1.00;;;;;;;8.25;100.00;98051.78;5008328;28;20219;-75
2022/09/28 03:19:56;;;;;;;3.90;1.40;;;;;;;8.24;100.00;98050.94;5011971;28;20189;-75
2022/09/28 03:22:21;;;;;;;1.60;1.00;;;;;;;8.23;100.00;98051.88;5001298;28;20280;-76
2022/09/28 03:24:46;;;;;;;1.70;1.07;;;;;;;8.12;100.00;98054.47;5010412;28;20197;-74
2022/09/28 03:27:11;;;;;;;3.83;1.37;;;;;;;8.00;100.00;98051.13;5016394;28;20673;-75
2022/09/28 03:29:37;;;;;;;1.10;1.00;;;;;;;8.00;100.00;98048.56;5015655;28;20183;-75
2022/09/28 03:32:03;;;;;;;2.60;1.50;;;;;;;8.01;100.00;98046.78;4995024;28;20243;-75
2022/09/28 03:34:28;;;;;;;2.73;1.20;;;;;;;7.95;100.00;98053.22;5015292;28;20198;-74
2022/09/28 03:36:53;;;;;;;1.23;1.13;;;;;;;7.96;100.00;98049.69;5013519;28;20281;-74
2022/09/28 03:39:18;;;;;;;0.90;0.90;;;;;;;7.97;100.00;98050.53;5019326;28;20703;-73
2022/09/28 03:41:44;;;;;;;1.50;1.00;;;;;;;7.81;100.00;98049.13;5016572;28;20226;-73
2022/09/28 03:44:09;;;;;;;1.27;1.00;;;;;;;7.99;100.00;98041.78;5017055;28;20249;-73
2022/09/28 03:46:34;;;;;;;1.20;1.10;;;;;;;7.96;100.00;98043.78;5012947;28;20233;-74
2022/09/28 03:48:59;;;;;;;1.37;1.07;;;;;;;8.01;100.00;98036.56;5011070;28;20183;-74
2022/09/28 03:51:25;;;;;;;1.43;1.07;;;;;;;7.81;100.00;98033.78;5003037;28;20276;-74
2022/09/28 03:53:50;;;;;;;1.70;0.90;;;;;;;7.77;100.00;98029.03;5016063;28;20200;-74
2022/09/28 03:56:16;;;;;;;1.33;1.27;;;;;;;7.73;100.00;98036.91;5014316;28;20185;-74
2022/09/28 03:58:41;;;;;;;1.97;1.10;;;;;;;7.57;100.00;98042.38;5022393;28;20664;-74
2022/09/28 04:01:11;;;;;;;1.23;1.00;;;;;;;7.52;100.00;98039.34;5025265;28;20259;-74
2022/09/28 04:03:36;;;;;;;1.27;1.17;;;;;;;7.56;100.00;98043.31;5013290;28;20244;-75
2022/09/28 04:06:02;;;;;;;1.20;1.10;;;;;;;7.50;100.00;98043.75;5014763;28;20187;-74
2022/09/28 04:08:27;;;;;;;1.40;1.20;;;;;;;7.53;100.00;98047.81;5016828;28;20209;-74
2022/09/28 04:10:57;;;;;;;1.27;1.20;;;;;;;7.58;100.00;98053.44;5015237;28;20236;-74
2022/09/28 04:13:23;;;;;;;1.63;1.27;;;;;;;7.60;100.00;98059.25;5014435;28;20710;-74
2022/09/28 04:15:57;;;;;;;1.13;1.00;;;;;;;7.59;100.00;98057.59;5021066;28;20241;-74
2022/09/28 04:18:23;;;;;;;1.20;1.03;;;;;;;7.66;100.00;98051.09;5026050;28;20185;-74
2022/09/28 04:21:02;;;;;;;1.00;1.00;;;;;;;7.59;100.00;98055.88;5017199;28;20255;-74
2022/09/28 04:23:27;;;;;;;0.90;0.90;;;;;;;7.71;100.00;98058.44;5019958;28;20200;-74
2022/09/28 04:25:53;;;;;;;2.20;1.00;;;;;;;7.67;100.00;98057.06;5015009;28;20185;-74
2022/09/28 04:31:02;;;;;;;1.03;1.03;;;;;;;7.71;100.00;98058.44;5017939;28;20235;-74
2022/09/28 04:33:28;;;;;;;2.03;1.00;;;;;;;7.79;100.00;98058.69;5026794;28;20222;-73
2022/09/28 04:35:53;;;;;;;1.60;1.07;;;;;;;7.87;100.00;98063.22;5019368;28;20649;-73
2022/09/28 04:38:18;;;;;;;1.27;1.17;;;;;;;7.79;100.00;98065.53;5011049;28;20185;-75
2022/09/28 04:40:44;;;;;;;1.30;1.20;;;;;;;7.86;100.00;98057.28;5005203;28;20237;-75
2022/09/28 04:43:09;;;;;;;2.97;1.00;;;;;;;7.85;100.00;98065.06;5010036;28;20694;-76
2022/09/28 04:45:34;;;;;;;5.77;1.33;;;;;;;7.86;100.00;98052.19;5022015;28;20194;-73
2022/09/28 04:48:00;;;;;;;1.50;1.20;;;;;;;7.83;100.00;98052.41;5012638;28;20213;-72
2022/09/28 04:50:25;;;;;;;2.37;1.20;;;;;;;7.79;100.00;98057.84;5006605;28;20237;-73
2022/09/28 04:52:50;;;;;;;3.00;1.30;;;;;;;7.91;100.00;98060.31;5023091;28;20193;-72
2022/09/28 04:55:15;;;;;;;1.40;1.13;;;;;;;7.88;100.00;98067.41;5018594;28;20614;-73
2022/09/28 04:57:41;;;;;;;2.93;1.73;;;;;;;7.87;100.00;98073.44;5011330;28;20179;-73
2022/09/28 05:00:08;;;;;;;1.90;1.63;;;;;;;7.84;100.00;98073.66;5007738;28;20194;-73
2022/09/28 05:02:33;;;;;;;2.30;1.70;;;;;;;7.69;100.00;98083.31;5012308;28;20201;-73
2022/09/28 05:04:59;;;;;;;1.60;1.50;;;;;;;7.60;100.00;98077.16;5010202;28;20194;-74
2022/09/28 05:07:25;;;;;;;3.97;1.57;;;;;;;7.50;100.00;98071.91;5012428;28;20222;-74
2022/09/28 05:09:51;;;;;;;1.97;1.60;;;;;;;7.36;100.00;98082.34;5022254;28;20273;-74
2022/09/28 05:12:16;;;;;;;1.60;1.50;;;;;;;7.30;100.00;98078.50;5011797;28;20340;-74
2022/09/28 05:14:42;;;;;;;2.53;1.40;;;;;;;7.09;100.00;98076.59;5010798;28;20210;-73
2022/09/28 05:17:08;;;;;;;2.20;1.40;;;;;;;7.14;100.00;98090.78;5014100;28;20641;-73
2022/09/28 05:19:34;;;;;;;3.80;1.67;;;;;;;7.13;100.00;98086.59;5013379;28;20194;-74
2022/09/28 05:22:03;;;;;;;1.70;1.60;;;;;;;6.88;100.00;98085.81;5018441;28;20235;-74
2022/09/28 05:24:29;;;;;;;2.37;1.50;;;;;;;6.96;100.00;98088.63;5010052;28;20189;-73
2022/09/28 05:26:54;;;;;;;2.00;1.80;;;;;;;6.92;100.00;98089.75;5011297;28;20264;-73
2022/09/28 05:29:19;;;;;;;2.87;1.60;;;;;;;6.92;100.00;98088.03;5014081;28;20185;-73
2022/09/28 05:31:45;;;;;;;1.67;1.50;;;;;;;6.83;100.00;98086.13;5017334;28;20240;-73
2022/09/28 05:34:10;;;;;;;1.40;1.30;;;;;;;6.83;100.00;98093.78;5011862;28;20208;-74
2022/09/28 05:36:36;;;;;;;2.47;1.70;;;;;;;6.81;100.00;98089.72;5012615;28;20198;-74
2022/09/28 05:39:02;;;;;;;2.97;1.60;;;;;;;6.70;100.00;98093.03;5009448;28;20221;-73
2022/09/28 05:41:28;;;;;;;2.60;1.70;;;;;;;6.70;100.00;98095.56;5005519;28;20257;-73
2022/09/28 05:43:53;;;;;;;1.90;1.80;;;;;;;6.69;100.00;98096.53;5025545;28;20600;-74
2022/09/28 05:46:20;;;;;;;3.13;1.57;;;;;;;6.76;100.00;98095.97;5027975;28;20228;-73
2022/09/28 05:48:46;;;;;;;2.40;2.20;;;;;;;6.73;100.00;98098.72;5021398;28;20592;-74
2022/09/28 05:51:11;;;;;;;4.33;1.97;;;;;;;6.77;100.00;98105.28;5014836;28;20262;-74
2022/09/28 05:53:36;;;;;;;2.00;1.80;;;;;;;6.69;100.00;98107.53;5038657;28;20275;-74
2022/09/28 05:56:02;;;;;;;3.37;1.77;;;;;;;6.72;100.00;98115.00;5023800;28;20716;-74
2022/09/28 05:58:27;;;;;;;2.07;1.87;;;;;;;6.62;100.00;98114.00;5029701;28;20645;-74
2022/09/28 06:00:56;;;;;;;1.70;1.60;;;;;;;6.72;100.00;98111.63;5021516;28;20245;-74
2022/09/28 06:03:22;;;;;;;1.70;1.50;;;;;;;6.79;100.00;98113.63;5031579;28;20207;-75
2022/09/28 06:05:48;;;;;;;2.00;1.83;;;;;;;6.76;100.00;98110.47;5027416;28;20192;-74
2022/09/28 06:08:13;;;;;;;1.70;1.60;;;;;;;6.85;100.00;98114.94;5017967;28;20195;-74
2022/09/28 06:10:39;;;;;;;2.70;1.60;;;;;;;6.91;100.00;98117.06;5011163;28;20299;-74
2022/09/28 06:13:05;;;;;;;2.10;1.90;;;;;;;7.03;100.00;98117.13;5012269;28;20230;-74
2022/09/28 06:15:32;;;;;;;2.43;2.10;;;;;;;7.20;100.00;98119.25;5015036;28;20197;-75
2022/09/28 06:18:03;;;;;;;2.50;1.63;;;;;;;7.55;100.00;98122.75;5011781;28;20702;-74
2022/09/28 06:20:32;;;;;;;2.07;1.63;;;;;;;8.14;100.00;98124.31;5000222;28;20776;-74
2022/09/28 06:22:57;;;;;;;1.60;1.50;;;;;;;8.89;100.00;98114.31;5002830;28;20183;-75
2022/09/28 06:25:26;;;;;;;1.43;1.30;;;;;;;10.00;100.00;98119.88;5022583;28;20263;-75
2022/09/28 06:28:01;;;;;;;1.27;1.00;;;;;;;11.87;100.00;98113.09;5015057;28;20206;-74
2022/09/28 06:30:30;;;;;;;1.37;1.03;;;;;;;13.33;100.00;98115.75;5009101;28;20241;-74
2022/09/28 06:32:57;;;;;;;1.33;0.97;;;;;;;14.52;92.37;98117.72;5017523;28;20206;-74
2022/09/28 06:35:24;;;;;;;1.87;1.03;;;;;;;14.74;88.40;98118.09;5015666;28;20186;-74
2022/09/28 06:37:50;;;;;;;0.73;0.73;;;;;;;15.79;83.33;98116.63;5016639;28;20541;-75
2022/09/28 06:40:17;;;;;;;1.07;0.80;;;;;;;16.00;77.74;98133.44;5011749;28;20260;-76
2022/09/28 06:42:42;;;;;;;2.33;1.00;;;;;;;17.69;70.66;98131.09;5014502;28;20201;-76
2022/09/28 06:45:09;;;;;;;3.23;0.90;;;;;;;18.10;62.35;98135.88;5029914;28;20186;-75
2022/09/28 06:47:34;;;;;;;2.00;0.90;;;;;;;18.81;59.18;98143.09;5012745;28;20227;-76
2022/09/28 06:49:59;;;;;;;0.80;0.60;;;;;;;18.10;59.15;98143.69;5016460;28;20183;-77
2022/09/28 06:52:24;;;;;;;0.77;0.70;;;;;;;18.50;55.96;98144.16;5001889;28;20610;-77
2022/09/28 06:54:50;;;;;;;1.40;0.70;;;;;;;18.61;57.09;98150.72;5015205;28;20186;-77
2022/09/28 06:57:16;;;;;;;1.00;0.70;;;;;;;19.17;49.88;98151.91;5015097;28;20655;-77
2022/09/28 06:59:42;;;;;;;1.00;0.57;;;;;;;19.32;51.43;98151.81;5023477;28;20236;-78
2022/09/28 07:02:11;;;;;;;0.87;0.70;;;;;;;19.90;48.54;98150.88;5011587;28;20224;-77
2022/09/28 07:04:39;;;;;;;3.23;0.70;;;;;;;20.54;44.41;98160.19;5021917;28;20216;-76
2022/09/28 07:07:07;;;;;;;0.77;0.50;;;;;;;20.08;44.76;98155.56;5021051;28;20589;-75
2022/09/28 07:09:33;;;;;;;1.40;0.73;;;;;;;19.26;46.97;98168.22;5017390;28;20182;-75
2022/09/28 07:11:58;;;;;;;2.33;0.83;;;;;;;19.78;45.69;98167.03;5004777;28;20240;-76
2022/09/28 07:14:24;;;;;;;1.50;0.73;;;;;;;19.99;45.94;98173.19;5024408;28;20190;-76
2022/09/28 07:16:49;;;;;;;1.90;0.60;;;;;;;19.60;45.86;98177.13;5015830;28;20272;-76
2022/09/28 07:19:15;;;;;;;0.90;0.80;;;;;;;19.67;46.05;98180.56;5012841;28;20587;-77
2022/09/28 07:21:40;;;;;;;0.97;0.70;;;;;;;19.99;45.11;98184.44;5007280;28;20225;-77
2022/09/28 07:24:06;;;;;;;1.20;0.83;;;;;;;19.31;46.51;98182.31;5025319;28;20179;-78
2022/09/28 07:26:32;;;;;;;1.53;0.80;;;;;;;19.44;46.22;98194.63;5016948;28;20207;-77
2022/09/28 07:28:57;;;;;;;1.07;0.60;;;;;;;20.34;44.87;98195.88;5003304;28;20519;-78
2022/09/28 07:31:24;;;;;;;1.83;0.73;;;;;;;19.72;45.58;98199.09;4991997;28;20245;-78
2022/09/28 07:33:50;;;;;;;1.50;0.80;;;;;;;19.49;46.85;98201.91;5015952;28;20211;-77
2022/09/28 07:36:16;;;;;;;3.27;1.07;;;;;;;19.37;45.97;98206.00;5010832;28;20182;-77
2022/09/28 07:38:42;;;;;;;2.17;0.80;;;;;;;18.70;46.50;98203.50;5009328;28;20178;-76
2022/09/28 07:41:11;;;;;;;1.93;0.87;;;;;;;17.73;50.80;98210.34;5005637;28;20214;-77
2022/09/28 07:43:38;;;;;;;1.47;0.57;;;;;;;16.58;57.58;98217.06;5017186;28;20205;-77
2022/09/28 07:46:07;;;;;;;1.97;1.03;;;;;;;15.73;63.80;98223.56;5008287;28;20284;-77
2022/09/28 07:48:35;;;;;;;2.57;0.97;;;;;;;15.09;68.41;98224.94;5008385;28;20632;-77
2022/09/28 07:51:01;;;;;;;2.10;0.80;;;;;;;14.22;74.67;98230.25;5003457;28;20261;-77
2022/09/28 07:53:27;;;;;;;1.50;0.80;;;;;;;13.60;78.60;98231.09;5018883;28;20255;-77
2022/09/28 07:55:55;;;;;;;1.70;1.00;;;;;;;13.03;82.87;98234.72;5010200;28;20186;-77
2022/09/28 07:58:21;;;;;;;2.70;0.80;;;;;;;13.63;84.14;98235.97;5009652;28;20175;-77
2022/09/28 08:00:48;;;;;;;1.23;0.83;;;;;;;13.70;85.57;98239.56;5005808;28;20263;-77
2022/09/28 08:03:18;;;;;;;16.77;1.30;;;;;;;13.82;88.28;98244.53;5020422;28;20183;-61
2022/09/28 08:05:44;;;;;;;1.53;0.90;;;;;;;13.93;85.65;98248.63;5008347;28;20617;-62
2022/09/28 08:08:09;;;;;;;2.50;0.90;;;;;;;13.90;83.29;98248.94;5011657;28;20203;-61
2022/09/28 08:10:36;;;;;;;1.33;0.80;;;;;;;13.42;86.25;98256.94;5004797;28;20233;-62
2022/09/28 08:13:02;;;;;;;1.87;1.20;;;;;;;13.27;88.58;98255.78;5009401;28;20210;-62
2022/09/28 08:15:35;;;;;;;1.17;1.00;;;;;;;12.56;91.20;98260.63;5011398;28;20226;-61
2022/09/28 08:18:02;;;;;;;1.77;1.03;;;;;;;12.39;95.23;98257.03;5011122;28;20197;-61
2022/09/28 08:23:12;;;;;;;2.43;1.03;;;;;;;12.28;100.00;98260.59;5022053;28;20609;-62
2022/09/28 08:25:37;;;;;;;2.33;1.20;;;;;;;11.92;99.09;98274.03;5009939;28;20178;-61
2022/09/28 08:28:05;;;;;;;1.43;0.80;;;;;;;11.94;95.98;98263.59;5008933;28;20210;-61
2022/09/28 08:30:31;;;;;;;2.57;1.10;;;;;;;11.99;99.91;98270.97;5005007;28;20305;-60
2022/09/28 08:32:56;;;;;;;2.27;1.13;;;;;;;12.10;99.15;98268.22;5021777;28;20298;-60
2022/09/28 08:35:24;;;;;;;2.53;1.20;;;;;;;11.76;97.64;98278.94;5013046;28;20220;-61
2022/09/28 08:37:53;;;;;;;2.07;0.90;;;;;;;11.96;97.67;98274.63;5009567;28;20183;-58
2022/09/28 08:40:24;;;;;;;1.97;0.87;;;;;;;14.38;91.24;98270.09;5014816;28;20694;-61
2022/09/28 08:42:53;;;;;;;1.40;1.00;;;;;;;14.41;79.82;98282.72;5043094;28;20193;-61
2022/09/28 08:45:26;;;;;;;3.90;0.87;;;;;;;14.16;77.61;98278.19;5017811;28;20199;-61
2022/09/28 08:52:03;;;;;;;1.97;0.83;;;;;;;13.74;77.40;98284.00;5016265;28;20298;-61
2022/09/28 08:54:47;;;;;;;1.90;1.17;;;;;;;14.30;77.43;98286.38;4977492;28;20196;-61
2022/09/28 08:57:18;;;;;;;0.97;0.70;;;;;;;16.05;60.93;98284.16;4974581;28;20592;-62
2022/09/28 08:59:49;;;;;;;2.20;0.80;;;;;;;17.41;51.75;98285.00;4970686;28;20199;-63
2022/09/28 09:02:21;;;;;;;1.77;0.77;;;;;;;18.35;47.12;98278.75;4964342;28;20303;-62
2022/09/28 09:04:47;;;;;;;1.90;0.77;;;;;;;19.82;43.35;98279.59;4957169;28;20298;-62
2022/09/28 09:07:56;;;;;;;1.57;0.50;;;;;;;20.66;42.57;98279.78;4973993;28;20675;-62
2022/09/28 09:10:46;;;;;;;0.80;0.57;;;;;;;18.16;46.57;98288.69;4927098;28;20602;-62
2022/09/28 09:13:39;;;;;;;1.03;0.60;;;;;;;16.76;51.49;98289.53;4971841;28;20192;-62
2022/09/28 09:16:30;;;;;;;0.53;0.53;;;;;;;18.18;47.06;98294.53;4968817;28;20204;-62
2022/09/28 09:19:14;;;;;;;2.40;0.70;;;;;;;18.29;45.99;98298.47;4972916;28;20272;-62
2022/09/28 09:21:45;;;;;;;1.40;0.80;;;;;;;20.09;41.89;98296.31;4960564;28;20247;-62
2022/09/28 09:24:25;;;;;;;2.30;0.90;;;;;;;20.06;39.90;98299.31;4963059;28;20195;-62
2022/09/28 09:27:03;;;;;;;2.00;0.70;;;;;;;18.45;44.63;98304.53;5012726;28;20183;-61
2022/09/28 09:29:44;;;;;;;1.83;0.60;;;;;;;18.22;45.64;98306.19;5013238;28;20661;-61
2022/09/28 09:32:18;;;;;;;1.77;0.80;;;;;;;17.65;46.03;98299.63;5001537;28;20240;-60
2022/09/28 09:35:03;;;;;;;1.47;0.60;;;;;;;17.09;48.20;98310.19;5011987;28;20245;-62
2022/09/28 09:37:56;;;;;;;1.03;0.60;;;;;;;15.42;54.11;98305.31;5014677;28;20194;-62
2022/09/28 09:41:05;;;;;;;1.23;0.70;;;;;;;14.49;62.53;98306.06;5004973;28;20248;-74
2022/09/28 09:43:37;;;;;;;0.93;0.50;;;;;;;14.20;67.00;98305.38;5016661;28;20187;-73
2022/09/28 09:46:28;;;;;;;2.10;0.70;;;;;;;13.27;72.57;98305.66;5013183;28;20618;-74
2022/09/28 09:49:15;;;;;;;1.57;1.00;;;;;;;12.98;76.93;98308.41;5024707;28;20207;-74
2022/09/28 09:52:24;;;;;;;2.40;0.73;;;;;;;12.86;80.13;98302.59;5013732;28;20243;-73
2022/09/28 09:54:57;;;;;;;0.77;0.77;;;;;;;12.59;80.50;98305.00;5009744;28;20201;-73
2022/09/28 09:57:38;;;;;;;0.93;0.70;;;;;;;12.54;83.59;98312.38;5014135;28;20190;-74
2022/09/28 10:00:04;;;;;;;5.10;1.00;;;;;;;12.86;83.41;98305.19;4999911;28;20609;-74
2022/09/28 10:02:33;;;;;;;1.67;0.77;;;;;;;13.19;81.79;98305.56;5008415;28;20215;-74
2022/09/28 10:05:04;;;;;;;1.63;0.90;;;;;;;13.49;80.73;98313.97;5012633;28;20186;-74
2022/09/28 10:07:40;;;;;;;4.60;1.00;;;;;;;14.10;72.01;98315.00;5012118;28;20211;-76
2022/09/28 10:10:11;;;;;;;2.93;0.70;;;;;;;13.38;69.71;98310.66;5002890;28;20276;-74
2022/09/28 10:12:37;;;;;;;2.20;1.10;;;;;;;13.07;70.45;98307.53;5024095;28;20195;-73
2022/09/28 10:15:06;;;;;;;1.57;0.60;;;;;;;13.14;72.47;98313.75;5012234;28;20195;-74
2022/09/28 10:17:33;;;;;;;1.40;0.70;;;;;;;13.83;69.97;98313.31;5006254;28;20183;-70
2022/09/28 10:19:59;;;;;;;1.57;0.70;;;;;;;13.92;65.68;98315.03;5012190;28;20202;-77
2022/09/28 10:22:26;;;;;;;0.80;0.53;;;;;;;13.98;67.16;98313.59;5002233;28;20238;-78
2022/09/28 10:24:56;;;;;;;2.60;1.07;;;;;;;14.32;67.49;98307.72;5012313;28;20257;-78
2022/09/28 10:27:33;;;;;;;1.63;0.80;;;;;;;15.14;62.85;98303.00;5017201;28;20257;-78
2022/09/28 10:30:01;;;;;;;4.43;1.30;;;;;;;15.26;56.82;98308.66;5014000;28;20245;-79
2022/09/28 10:32:35;;;;;;;0.73;0.70;;;;;;;15.55;55.98;98317.00;4987346;28;20288;-79
2022/09/28 10:35:28;;;;;;;2.93;1.70;;;;;;;14.57;58.92;98319.03;5012881;28;20233;-78
2022/09/28 10:37:59;;;;;;;1.90;0.70;;;;;;;14.44;60.59;98322.03;5019400;28;20606;-79
2022/09/28 10:40:45;;;;;;;2.43;0.70;;;;;;;13.93;61.28;98327.00;5025709;28;20299;-79
2022/09/28 10:43:35;;;;;;;1.20;1.10;;;;;;;13.51;65.45;98333.53;5036486;28;20182;-77
2022/09/28 10:46:05;;;;;;;1.70;0.93;;;;;;;13.60;67.20;98337.00;5029867;28;20257;-79
2022/09/28 10:48:45;;;;;;;2.03;0.50;;;;;;;13.53;66.01;98335.97;5028830;28;20207;-80
2022/09/28 10:51:11;;;;;;;1.30;0.50;;;;;;;13.24;69.47;98332.56;5002652;28;20240;-78
2022/09/28 10:53:37;;;;;;;3.40;1.50;;;;;;;13.53;70.69;98338.56;5021116;28;20190;-80
2022/09/28 10:56:22;;;;;;;4.47;2.03;;;;;;;13.50;69.23;98337.06;5011786;28;20182;-79
2022/09/28 10:58:47;;;;;;;10.07;5.77;;;;;;;13.42;73.34;98337.00;5011679;28;20274;-60
2022/09/28 11:01:17;;;;;;;2.30;0.77;;;;;;;13.33;71.71;98338.63;4990627;28;20226;-59
2022/09/28 11:04:01;;;;;;;3.20;0.80;;;;;;;13.24;70.90;98336.94;5015887;28;20204;-60
2022/09/28 11:06:31;;;;;;;3.30;1.93;;;;;;;13.74;69.78;98335.69;5012350;28;20175;-69
2022/09/28 11:09:01;;;;;;;4.33;2.20;;;;;;;13.83;68.01;98337.41;5005158;28;20219;-79
2022/09/28 11:11:28;;;;;;;2.83;2.00;;;;;;;14.22;68.06;98331.09;4996956;28;20238;-79
2022/09/28 11:14:02;;;;;;;6.27;2.07;;;;;;;14.72;64.70;98327.06;5006364;28;20179;-79
2022/09/28 11:16:33;;;;;;;4.37;1.50;;;;;;;14.83;60.58;98324.22;5014885;28;20684;-79
2022/09/28 11:19:26;;;;;;;4.93;1.00;;;;;;;14.94;58.45;98320.53;5011401;28;20599;-78
2022/09/28 11:21:51;;;;;;;2.33;1.73;;;;;;;15.35;56.21;98319.06;5003832;28;20257;-77
2022/09/28 11:24:22;;;;;;;3.37;2.27;;;;;;;15.70;53.91;98314.59;5014598;28;20182;-79
2022/09/28 11:26:58;;;;;;;13.07;8.27;;;;;;;15.36;53.92;98315.50;5012882;28;20183;-80
2022/09/28 11:29:36;;;;;;;2.80;1.10;;;;;;;15.28;56.36;98313.69;5004586;28;20189;-77
2022/09/28 11:32:04;;;;;;;3.00;1.17;;;;;;;15.85;56.46;98314.78;4982374;28;20218;-76
2022/09/28 11:34:42;;;;;;;3.03;1.13;;;;;;;15.80;52.53;98315.22;5011757;28;20274;-77
2022/09/28 11:37:30;;;;;;;3.27;1.00;;;;;;;16.12;51.50;98314.47;5010731;28;20273;-81
2022/09/28 11:40:26;;;;;;;5.20;0.80;;;;;;;16.08;52.67;98313.16;5011786;28;20550;-81
2022/09/28 11:43:13;;;;;;;4.57;1.97;;;;;;;15.99;51.49;98308.97;4999404;28;20297;-81
2022/09/28 11:45:48;;;;;;;4.63;2.73;;;;;;;15.43;52.46;98312.13;5012450;28;20309;-81
2022/09/28 11:48:21;;;;;;;0.93;0.80;;;;;;;15.87;51.50;98313.66;5000346;28;20194;-79
2022/09/28 11:50:58;;;;;;;5.37;1.87;;;;;;;15.89;52.21;98305.69;5003466;28;20632;-81
2022/09/28 11:53:36;;;;;;;4.30;2.30;;;;;;;16.16;50.68;98314.13;5014798;28;20229;-72
2022/09/28 11:56:29;;;;;;;1.90;0.90;;;;;;;15.43;49.92;98317.31;5009100;28;20189;-73
2022/09/28 11:58:59;;;;;;;1.87;1.00;;;;;;;14.88;51.35;98310.00;5006875;28;20219;-72
2022/09/28 12:01:37;;;;;;;3.60;2.53;;;;;;;14.77;53.47;98313.66;5014756;28;20252;-73